createdAt,value
2023-04-15T00:03:35.531Z,-0.90
2023-04-15T00:13:43.369Z,-1.02
2023-04-15T00:23:50.327Z,-1.13
2023-04-15T00:33:54.632Z,-1.26
2023-04-15T00:43:57.509Z,-1.36
2023-04-15T00:54:02.354Z,-1.47
2023-04-15T01:04:06.137Z,-1.57
2023-04-15T01:14:12.248Z,-1.66
2023-04-15T01:24:18.495Z,-1.76
2023-04-15T01:34:23.196Z,-1.86
2023-04-15T01:44:27.186Z,-1.96
2023-04-15T01:54:31.765Z,-2.05
2023-04-15T02:04:35.765Z,-2.17
2023-04-15T02:14:40.248Z,-2.24
2023-04-15T02:24:43.081Z,-2.23
2023-04-15T02:34:48.170Z,-2.10
2023-04-15T02:44:51.564Z,-1.91
2023-04-15T02:55:01.208Z,-1.64
2023-04-15T03:05:04.792Z,-1.32
2023-04-15T03:15:11.163Z,-0.99
2023-04-15T03:25:15.322Z,-0.64
2023-04-15T03:35:20.470Z,-0.25
2023-04-15T03:45:24.179Z,0.13
2023-04-15T03:55:29.550Z,0.47
2023-04-15T04:05:32.453Z,0.85
2023-04-15T04:15:36.939Z,1.17
2023-04-15T04:25:39.775Z,1.54
2023-04-15T04:35:44.218Z,1.83
2023-04-15T04:45:47.581Z,2.16
2023-04-15T04:55:52.767Z,2.42
2023-04-15T05:05:55.818Z,2.69
2023-04-15T05:16:01.610Z,2.96
2023-04-15T05:26:04.620Z,3.22
2023-04-15T05:36:12.910Z,3.47
2023-04-15T05:46:17.179Z,3.68
2023-04-15T05:56:21.738Z,3.89
2023-04-15T06:06:25.130Z,4.12
2023-04-15T06:16:32.686Z,4.37
2023-04-15T06:26:43.246Z,4.53
2023-04-15T06:36:49.694Z,4.68
2023-04-15T06:47:02.380Z,4.81
2023-04-15T06:57:10.506Z,4.92
2023-04-15T07:07:15.402Z,5.01
2023-04-15T07:17:21.570Z,5.11
2023-04-15T07:27:31.540Z,5.19
2023-04-15T07:37:50.575Z,5.23
2023-04-15T07:47:56.867Z,5.19
2023-04-15T07:58:03.737Z,5.15
2023-04-15T08:08:19.792Z,5.15
2023-04-15T08:18:38.967Z,5.11
2023-04-15T08:29:03.012Z,5.12
2023-04-15T08:39:19.022Z,5.13
2023-04-15T08:49:25.936Z,5.12
2023-04-15T08:59:32.521Z,5.13
2023-04-15T09:09:38.309Z,5.22
2023-04-15T09:19:43.636Z,5.31
2023-04-15T09:29:51.483Z,5.42
2023-04-15T09:39:56.974Z,5.52
2023-04-15T09:50:02.530Z,5.63
2023-04-15T10:00:11.983Z,5.77
2023-04-15T10:10:16.114Z,5.88
2023-04-15T10:20:22.377Z,6.02
2023-04-15T10:30:27.350Z,6.15
2023-04-15T10:40:34.189Z,6.33
2023-04-15T10:50:38.928Z,6.45
2023-04-15T11:00:53.768Z,6.59
2023-04-15T11:10:58.354Z,6.71
2023-04-15T11:21:05.485Z,6.86
2023-04-15T11:31:12.170Z,6.98
2023-04-15T11:41:22.716Z,7.13
2023-04-15T11:51:26.780Z,7.28
2023-04-15T12:01:35.999Z,7.42
2023-04-15T12:11:46.920Z,7.51
2023-04-15T12:21:52.351Z,7.63
2023-04-15T12:31:57.361Z,7.74
2023-04-15T12:42:01.865Z,7.84
2023-04-15T12:52:05.229Z,8.02
2023-04-15T13:02:10.500Z,8.15
2023-04-15T13:12:16.064Z,8.27
2023-04-15T13:22:21.640Z,8.36
2023-04-15T13:32:29.578Z,8.45
2023-04-15T13:42:53.302Z,8.58
2023-04-15T13:53:07.262Z,8.64
2023-04-15T14:03:19.195Z,8.68
2023-04-15T14:13:29.559Z,8.70
2023-04-15T14:23:35.207Z,8.72
2023-04-15T14:54:41.288Z,8.64
2023-04-15T15:04:51.530Z,8.63
2023-04-15T15:14:56.828Z,8.57
2023-04-15T15:25:02.847Z,8.53
2023-04-15T15:35:12.573Z,8.43
2023-04-15T15:45:19.799Z,8.34
2023-04-15T15:55:26.601Z,8.24
2023-04-15T16:05:36.512Z,8.12
2023-04-15T16:26:17.233Z,7.82
2023-04-15T16:36:23.878Z,7.68
2023-04-15T16:46:33.891Z,7.48
2023-04-15T16:56:40.805Z,7.33
2023-04-15T17:07:09.919Z,7.14
2023-04-15T17:17:21.720Z,6.98
2023-04-15T17:27:39.562Z,6.82
2023-04-15T17:37:57.140Z,6.61
2023-04-15T17:48:04.367Z,6.39
2023-04-15T17:58:09.096Z,6.20
2023-04-15T18:08:15.087Z,6.08
2023-04-15T18:18:19.026Z,5.96
2023-04-15T18:28:24.022Z,5.84
2023-04-15T18:38:28.424Z,5.72
2023-04-15T18:48:33.115Z,5.56
2023-04-15T18:59:18.188Z,5.41
2023-04-15T19:09:04.972Z,5.27
2023-04-15T19:19:08.031Z,5.15
2023-04-15T19:29:13.191Z,5.05
2023-04-15T19:39:17.145Z,4.95
2023-04-15T19:49:23.210Z,4.85
2023-04-15T19:59:27.625Z,4.74
2023-04-15T20:09:35.403Z,4.60
2023-04-15T20:19:39.956Z,4.45
2023-04-15T20:29:51.487Z,4.23
2023-04-15T20:39:57.145Z,4.05
2023-04-15T20:50:05.397Z,3.79
2023-04-15T21:00:12.411Z,3.62
2023-04-15T21:10:21.312Z,3.44
2023-04-15T21:20:27.023Z,3.22
2023-04-15T21:30:32.096Z,3.03
2023-04-15T21:40:41.055Z,2.87
2023-04-15T21:50:45.532Z,2.73
2023-04-15T22:00:49.539Z,2.59
2023-04-15T22:10:55.364Z,2.47
2023-04-15T22:20:59.300Z,2.34
2023-04-15T22:31:05.749Z,2.12
2023-04-15T22:41:10.177Z,1.98
2023-04-15T22:51:22.480Z,1.84
2023-04-15T23:01:27.519Z,1.65
2023-04-15T23:11:34.506Z,1.50
2023-04-15T23:21:38.675Z,1.35
2023-04-15T23:31:44.095Z,1.17
2023-04-15T23:41:49.033Z,1.01
2023-04-15T23:51:54.278Z,0.88
